PWSweather.com
Personal Weather Stations
Station Observations
KMIEASTT1
Tawas Bay, East Tawas, MI 48730

Tawas BayEast Tawas, MI 48730

Lat: 44.28, Lon: -83.48

Elevation: 600

Station Type: Davis VantagePro

http://www.tawasbayweather.com

High Low Average
Temperature 27.7°F-2.4°C 5.0°F-15.0°C 16.4°F-8.7°C
Dew Point 24.1°F-4.4°C 0.5°F-17.5°C 11.9°F-11.2°C
Winds 28.0 mph 45.1 kmh 8.0 mph 12.9 kmh 16.0 mph SW25.7 kmh SW
Wind Gusts 33.0 mph53.1 kmh 11.0 mph17.7 kmh 20.0 mph32.2 kmh
Humidity 89% 72% 82%
Pressure 30.55 in1034.5 mb 29.93 in1013.5 mb -
Precipitation 0.00 in0.0 mm - -
Hour Temp Dew Point Humidity Winds Wind Gusts Pressure Precip Precip Rate Daily Precip Total
12:00 AM 4.2°F-15.4°C -0.9°F-18.3°C 79% 10.0 mph SW16.1 kmh SW 12.0 mph19.3 kmh 30.58 in1035.6 mb 0.00 in0.0 mm 0.00 in0.0 mm 0.00 in0.0 mm
12:15 AM 4.1°F-15.5°C -0.4°F-18.0°C 81% 9.0 mph SW14.5 kmh SW 11.0 mph17.7 kmh 30.58 in1035.6 mb 0.00 in0.0 mm 0.00 in0.0 mm 0.00 in0.0 mm
12:30 AM 4.4°F-15.3°C -0.4°F-18.0°C 80% 8.0 mph SW12.9 kmh SW 11.0 mph17.7 kmh 30.57 in1035.2 mb 0.00 in0.0 mm 0.00 in0.0 mm 0.00 in0.0 mm
12:45 AM 4.8°F-15.1°C 0.0°F-17.8°C 80% 9.0 mph SW14.5 kmh SW 12.0 mph19.3 kmh 30.56 in1034.9 mb 0.00 in0.0 mm 0.00 in0.0 mm 0.00 in0.0 mm
01:00 AM 5.0°F-15.0°C 0.5°F-17.5°C 81% 9.0 mph SW14.5 kmh SW 11.0 mph17.7 kmh 30.55 in1034.5 mb 0.00 in0.0 mm 0.00 in0.0 mm 0.00 in0.0 mm
01:15 AM 5.5°F-14.7°C 0.7°F-17.4°C 80% 10.0 mph SSW16.1 kmh SSW 14.0 mph22.5 kmh 30.55 in1034.5 mb 0.00 in0.0 mm 0.00 in0.0 mm 0.00 in0.0 mm
01:30 AM 6.5°F-14.2°C 1.4°F-17.0°C 79% 16.0 mph NW25.7 kmh NW 23.0 mph37.0 kmh 30.54 in1034.2 mb 0.00 in0.0 mm 0.00 in0.0 mm 0.00 in0.0 mm
01:45 AM 6.7°F-14.1°C 1.6°F-16.9°C 79% 20.0 mph NW32.2 kmh NW 23.0 mph37.0 kmh 30.53 in1033.9 mb 0.00 in0.0 mm 0.00 in0.0 mm 0.00 in0.0 mm
02:00 AM 6.6°F-14.1°C 1.5°F-16.9°C 79% 22.0 mph NW35.4 kmh NW 24.0 mph38.6 kmh 30.53 in1033.9 mb 0.00 in0.0 mm 0.00 in0.0 mm 0.00 in0.0 mm
02:15 AM 6.9°F-13.9°C 1.8°F-16.8°C 79% 20.0 mph N32.2 kmh N 25.0 mph40.2 kmh 30.52 in1033.5 mb 0.00 in0.0 mm 0.00 in0.0 mm 0.00 in0.0 mm
02:30 AM 6.8°F-14.0°C 2.0°F-16.7°C 80% 22.0 mph NW35.4 kmh NW 26.0 mph41.8 kmh 30.52 in1033.5 mb 0.00 in0.0 mm 0.00 in0.0 mm 0.00 in0.0 mm
02:46 AM 7.6°F-13.6°C 3.0°F-16.1°C 81% 21.0 mph NW33.8 kmh NW 26.0 mph41.8 kmh 30.51 in1033.2 mb 0.00 in0.0 mm 0.00 in0.0 mm 0.00 in0.0 mm
03:00 AM 8.0°F-13.3°C 3.1°F-16.1°C 80% 23.0 mph NW37.0 kmh NW 24.0 mph38.6 kmh 30.51 in1033.2 mb 0.00 in0.0 mm 0.00 in0.0 mm 0.00 in0.0 mm
03:15 AM 7.9°F-13.4°C 2.8°F-16.2°C 79% 18.0 mph NW29.0 kmh NW 26.0 mph41.8 kmh 30.50 in1032.8 mb 0.00 in0.0 mm 0.00 in0.0 mm 0.00 in0.0 mm
03:30 AM 6.6°F-14.1°C 2.0°F-16.7°C 81% 16.0 mph S25.7 kmh S 18.0 mph29.0 kmh 30.49 in1032.5 mb 0.00 in0.0 mm 0.00 in0.0 mm 0.00 in0.0 mm
03:45 AM 6.8°F-14.0°C 2.2°F-16.6°C 81% 15.0 mph SSW24.1 kmh SSW 17.0 mph27.4 kmh 30.49 in1032.5 mb 0.00 in0.0 mm 0.00 in0.0 mm 0.00 in0.0 mm
04:00 AM 6.5°F-14.2°C 1.9°F-16.7°C 81% 15.0 mph SSW24.1 kmh SSW 19.0 mph30.6 kmh 30.49 in1032.5 mb 0.00 in0.0 mm 0.00 in0.0 mm 0.00 in0.0 mm
04:15 AM 6.9°F-13.9°C 2.3°F-16.5°C 81% 15.0 mph SSW24.1 kmh SSW 18.0 mph29.0 kmh 30.49 in1032.5 mb 0.00 in0.0 mm 0.00 in0.0 mm 0.00 in0.0 mm
04:30 AM 6.5°F-14.2°C 2.2°F-16.6°C 82% 16.0 mph S25.7 kmh S 19.0 mph30.6 kmh 30.48 in1032.2 mb 0.00 in0.0 mm 0.00 in0.0 mm 0.00 in0.0 mm
04:45 AM 6.9°F-13.9°C 2.8°F-16.2°C 83% 12.0 mph SSW19.3 kmh SSW 20.0 mph32.2 kmh 30.46 in1031.5 mb 0.00 in0.0 mm 0.00 in0.0 mm 0.00 in0.0 mm
05:00 AM 7.1°F-13.8°C 3.6°F-15.8°C 85% 15.0 mph SSW24.1 kmh SSW 21.0 mph33.8 kmh 30.46 in1031.5 mb 0.00 in0.0 mm 0.00 in0.0 mm 0.00 in0.0 mm
05:15 AM 7.2°F-13.8°C 3.9°F-15.6°C 86% 12.0 mph SSW19.3 kmh SSW 18.0 mph29.0 kmh 30.46 in1031.5 mb 0.00 in0.0 mm 0.00 in0.0 mm 0.00 in0.0 mm
05:30 AM 7.3°F-13.7°C 3.8°F-15.7°C 85% 14.0 mph SSW22.5 kmh SSW 18.0 mph29.0 kmh 30.45 in1031.2 mb 0.00 in0.0 mm 0.00 in0.0 mm 0.00 in0.0 mm
05:45 AM 7.6°F-13.6°C 4.0°F-15.6°C 85% 10.0 mph SSW16.1 kmh SSW 16.0 mph25.7 kmh 30.45 in1031.2 mb 0.00 in0.0 mm 0.00 in0.0 mm 0.00 in0.0 mm
06:00 AM 8.2°F-13.2°C 4.6°F-15.2°C 85% 11.0 mph SW17.7 kmh SW 17.0 mph27.4 kmh 30.44 in1030.8 mb 0.00 in0.0 mm 0.00 in0.0 mm 0.00 in0.0 mm
06:15 AM 8.5°F-13.1°C 5.2°F-14.9°C 86% 14.0 mph SW22.5 kmh SW 17.0 mph27.4 kmh 30.43 in1030.5 mb 0.00 in0.0 mm 0.00 in0.0 mm 0.00 in0.0 mm
06:30 AM 8.6°F-13.0°C 5.3°F-14.8°C 86% 10.0 mph SW16.1 kmh SW 15.0 mph24.1 kmh 30.41 in1029.8 mb 0.00 in0.0 mm 0.00 in0.0 mm 0.00 in0.0 mm
06:45 AM 8.5°F-13.1°C 5.2°F-14.9°C 86% 15.0 mph SW24.1 kmh SW 18.0 mph29.0 kmh 30.40 in1029.5 mb 0.00 in0.0 mm 0.00 in0.0 mm 0.00 in0.0 mm
07:00 AM 8.9°F-12.8°C 5.6°F-14.7°C 86% 15.0 mph SSW24.1 kmh SSW 18.0 mph29.0 kmh 30.37 in1028.4 mb 0.00 in0.0 mm 0.00 in0.0 mm 0.00 in0.0 mm
07:15 AM 9.7°F-12.4°C 6.6°F-14.1°C 87% 15.0 mph SSW24.1 kmh SSW 19.0 mph30.6 kmh 30.36 in1028.1 mb 0.00 in0.0 mm 0.00 in0.0 mm 0.00 in0.0 mm
07:30 AM 10.1°F-12.2°C 7.0°F-13.9°C 87% 15.0 mph SSW24.1 kmh SSW 17.0 mph27.4 kmh 30.36 in1028.1 mb 0.00 in0.0 mm 0.00 in0.0 mm 0.00 in0.0 mm
07:45 AM 10.1°F-12.2°C 7.0°F-13.9°C 87% 16.0 mph S25.7 kmh S 20.0 mph32.2 kmh 30.35 in1027.8 mb 0.00 in0.0 mm 0.00 in0.0 mm 0.00 in0.0 mm
08:00 AM 10.3°F-12.1°C 7.5°F-13.6°C 88% 14.0 mph SSW22.5 kmh SSW 21.0 mph33.8 kmh 30.35 in1027.8 mb 0.00 in0.0 mm 0.00 in0.0 mm 0.00 in0.0 mm
08:15 AM 10.6°F-11.9°C 7.8°F-13.4°C 88% 17.0 mph S27.4 kmh S 22.0 mph35.4 kmh 30.34 in1027.4 mb 0.00 in0.0 mm 0.00 in0.0 mm 0.00 in0.0 mm
08:30 AM 10.8°F-11.8°C 8.2°F-13.2°C 89% 20.0 mph S32.2 kmh S 23.0 mph37.0 kmh 30.33 in1027.1 mb 0.00 in0.0 mm 0.00 in0.0 mm 0.00 in0.0 mm
08:45 AM 10.8°F-11.8°C 8.2°F-13.2°C 89% 20.0 mph S32.2 kmh S 22.0 mph35.4 kmh 30.33 in1027.1 mb 0.00 in0.0 mm 0.00 in0.0 mm 0.00 in0.0 mm
09:00 AM 10.9°F-11.7°C 8.3°F-13.2°C 89% 17.0 mph SSW27.4 kmh SSW 22.0 mph35.4 kmh 30.33 in1027.1 mb 0.00 in0.0 mm 0.00 in0.0 mm 0.00 in0.0 mm
09:15 AM 11.1°F-11.6°C 8.3°F-13.2°C 88% 19.0 mph S30.6 kmh S 22.0 mph35.4 kmh 30.32 in1026.8 mb 0.00 in0.0 mm 0.00 in0.0 mm 0.00 in0.0 mm
09:30 AM 11.4°F-11.4°C 8.5°F-13.1°C 88% 18.0 mph SSW29.0 kmh SSW 21.0 mph33.8 kmh 30.31 in1026.4 mb 0.00 in0.0 mm 0.00 in0.0 mm 0.00 in0.0 mm
09:45 AM 11.7°F-11.3°C 8.8°F-12.9°C 88% 22.0 mph S35.4 kmh S 22.0 mph35.4 kmh 30.31 in1026.4 mb 0.00 in0.0 mm 0.00 in0.0 mm 0.00 in0.0 mm
10:00 AM 12.1°F-11.1°C 9.0°F-12.8°C 87% 20.0 mph SW32.2 kmh SW 25.0 mph40.2 kmh 30.31 in1026.4 mb 0.00 in0.0 mm 0.00 in0.0 mm 0.00 in0.0 mm
10:15 AM 12.3°F-10.9°C 9.2°F-12.7°C 87% 14.0 mph SSW22.5 kmh SSW 22.0 mph35.4 kmh 30.29 in1025.7 mb 0.00 in0.0 mm 0.00 in0.0 mm 0.00 in0.0 mm
10:30 AM 12.6°F-10.8°C 9.5°F-12.5°C 87% 18.0 mph SSW29.0 kmh SSW 23.0 mph37.0 kmh 30.28 in1025.4 mb 0.00 in0.0 mm 0.00 in0.0 mm 0.00 in0.0 mm
10:45 AM 12.7°F-10.7°C 9.6°F-12.4°C 87% 21.0 mph S33.8 kmh S 23.0 mph37.0 kmh 30.27 in1025.1 mb 0.00 in0.0 mm 0.00 in0.0 mm 0.00 in0.0 mm
11:00 AM 12.8°F-10.7°C 9.9°F-12.3°C 88% 17.0 mph SSW27.4 kmh SSW 23.0 mph37.0 kmh 30.27 in1025.1 mb 0.00 in0.0 mm 0.00 in0.0 mm 0.00 in0.0 mm
11:15 AM 13.2°F-10.4°C 10.1°F-12.2°C 87% 17.0 mph SSW27.4 kmh SSW 22.0 mph35.4 kmh 30.27 in1025.1 mb 0.00 in0.0 mm 0.00 in0.0 mm 0.00 in0.0 mm
11:30 AM 13.5°F-10.3°C 10.4°F-12.0°C 87% 17.0 mph SSW27.4 kmh SSW 22.0 mph35.4 kmh 30.26 in1024.7 mb 0.00 in0.0 mm 0.00 in0.0 mm 0.00 in0.0 mm
11:45 AM 13.7°F-10.2°C 10.3°F-12.1°C 86% 16.0 mph S25.7 kmh S 24.0 mph38.6 kmh 30.24 in1024.0 mb 0.00 in0.0 mm 0.00 in0.0 mm 0.00 in0.0 mm
12:00 PM 13.9°F-10.1°C 10.8°F-11.8°C 87% 23.0 mph S37.0 kmh S 24.0 mph38.6 kmh 30.23 in1023.7 mb 0.00 in0.0 mm 0.00 in0.0 mm 0.00 in0.0 mm
12:15 PM 14.0°F-10.0°C 11.1°F-11.6°C 88% 21.0 mph S33.8 kmh S 27.0 mph43.5 kmh 30.21 in1023.0 mb 0.00 in0.0 mm 0.00 in0.0 mm 0.00 in0.0 mm
12:30 PM 14.3°F-9.8°C 11.4°F-11.4°C 88% 17.0 mph SSW27.4 kmh SSW 23.0 mph37.0 kmh 30.19 in1022.4 mb 0.00 in0.0 mm 0.00 in0.0 mm 0.00 in0.0 mm
12:45 PM 14.9°F-9.5°C 11.7°F-11.3°C 87% 17.0 mph SW27.4 kmh SW 22.0 mph35.4 kmh 30.19 in1022.4 mb 0.00 in0.0 mm 0.00 in0.0 mm 0.00 in0.0 mm
01:00 PM 15.5°F-9.2°C 12.1°F-11.1°C 86% 21.0 mph SSW33.8 kmh SSW 23.0 mph37.0 kmh 30.17 in1021.7 mb 0.00 in0.0 mm 0.00 in0.0 mm 0.00 in0.0 mm
01:15 PM 15.8°F-9.0°C 11.8°F-11.2°C 84% 17.0 mph SW27.4 kmh SW 24.0 mph38.6 kmh 30.16 in1021.3 mb 0.00 in0.0 mm 0.00 in0.0 mm 0.00 in0.0 mm
01:30 PM 16.2°F-8.8°C 12.0°F-11.1°C 83% 22.0 mph SW35.4 kmh SW 23.0 mph37.0 kmh 30.15 in1021.0 mb 0.00 in0.0 mm 0.00 in0.0 mm 0.00 in0.0 mm
01:45 PM 17.0°F-8.3°C 12.7°F-10.7°C 83% 20.0 mph SSW32.2 kmh SSW 22.0 mph35.4 kmh 30.13 in1020.3 mb 0.00 in0.0 mm 0.00 in0.0 mm 0.00 in0.0 mm
02:00 PM 18.0°F-7.8°C 13.4°F-10.3°C 82% 22.0 mph SW35.4 kmh SW 25.0 mph40.2 kmh 30.12 in1020.0 mb 0.00 in0.0 mm 0.00 in0.0 mm 0.00 in0.0 mm
02:15 PM 20.1°F-6.6°C 12.9°F-10.6°C 73% 28.0 mph NNW45.1 kmh NNW 33.0 mph53.1 kmh 30.11 in1019.6 mb 0.00 in0.0 mm 0.00 in0.0 mm 0.00 in0.0 mm
02:30 PM 20.5°F-6.4°C 13.2°F-10.4°C 73% 23.0 mph NW37.0 kmh NW 32.0 mph51.5 kmh 30.10 in1019.3 mb 0.00 in0.0 mm 0.00 in0.0 mm 0.00 in0.0 mm
02:45 PM 20.6°F-6.3°C 13.0°F-10.6°C 72% 23.0 mph NW37.0 kmh NW 33.0 mph53.1 kmh 30.09 in1019.0 mb 0.00 in0.0 mm 0.00 in0.0 mm 0.00 in0.0 mm
03:00 PM 21.0°F-6.1°C 13.7°F-10.2°C 73% 28.0 mph NW45.1 kmh NW 31.0 mph49.9 kmh 30.08 in1018.6 mb 0.00 in0.0 mm 0.00 in0.0 mm 0.00 in0.0 mm
03:15 PM 20.2°F-6.6°C 14.5°F-9.7°C 78% 19.0 mph SW30.6 kmh SW 23.0 mph37.0 kmh 30.07 in1018.3 mb 0.00 in0.0 mm 0.00 in0.0 mm 0.00 in0.0 mm
03:30 PM 20.5°F-6.4°C 14.5°F-9.7°C 77% 18.0 mph SW29.0 kmh SW 21.0 mph33.8 kmh 30.06 in1017.9 mb 0.00 in0.0 mm 0.00 in0.0 mm 0.00 in0.0 mm
03:45 PM 20.9°F-6.2°C 14.8°F-9.6°C 77% 20.0 mph SW32.2 kmh SW 22.0 mph35.4 kmh 30.05 in1017.6 mb 0.00 in0.0 mm 0.00 in0.0 mm 0.00 in0.0 mm
04:00 PM 21.3°F-5.9°C 14.9°F-9.5°C 76% 15.0 mph SW24.1 kmh SW 21.0 mph33.8 kmh 30.05 in1017.6 mb 0.00 in0.0 mm 0.00 in0.0 mm 0.00 in0.0 mm
04:15 PM 21.5°F-5.8°C 15.1°F-9.4°C 76% 18.0 mph SW29.0 kmh SW 20.0 mph32.2 kmh 30.04 in1017.3 mb 0.00 in0.0 mm 0.00 in0.0 mm 0.00 in0.0 mm
04:30 PM 21.7°F-5.7°C 15.3°F-9.3°C 76% 13.0 mph SW20.9 kmh SW 19.0 mph30.6 kmh 30.04 in1017.3 mb 0.00 in0.0 mm 0.00 in0.0 mm 0.00 in0.0 mm
04:45 PM 21.9°F-5.6°C 15.2°F-9.3°C 75% 11.0 mph SSW17.7 kmh SSW 20.0 mph32.2 kmh 30.03 in1016.9 mb 0.00 in0.0 mm 0.00 in0.0 mm 0.00 in0.0 mm
05:00 PM 22.0°F-5.6°C 15.6°F-9.1°C 76% 16.0 mph SW25.7 kmh SW 18.0 mph29.0 kmh 30.02 in1016.6 mb 0.00 in0.0 mm 0.00 in0.0 mm 0.00 in0.0 mm
05:15 PM 22.2°F-5.4°C 15.8°F-9.0°C 76% 18.0 mph SW29.0 kmh SW 18.0 mph29.0 kmh 30.01 in1016.3 mb 0.00 in0.0 mm 0.00 in0.0 mm 0.00 in0.0 mm
05:30 PM 22.5°F-5.3°C 16.4°F-8.7°C 77% 13.0 mph SW20.9 kmh SW 17.0 mph27.4 kmh 30.01 in1016.3 mb 0.00 in0.0 mm 0.00 in0.0 mm 0.00 in0.0 mm
05:45 PM 23.0°F-5.0°C 16.6°F-8.6°C 76% 11.0 mph SW17.7 kmh SW 17.0 mph27.4 kmh 30.01 in1016.3 mb 0.00 in0.0 mm 0.00 in0.0 mm 0.00 in0.0 mm
06:00 PM 23.2°F-4.9°C 17.1°F-8.3°C 77% 12.0 mph SW19.3 kmh SW 15.0 mph24.1 kmh 30.00 in1015.9 mb 0.00 in0.0 mm 0.00 in0.0 mm 0.00 in0.0 mm
06:15 PM 23.5°F-4.7°C 17.1°F-8.3°C 76% 10.0 mph SW16.1 kmh SW 14.0 mph22.5 kmh 30.00 in1015.9 mb 0.00 in0.0 mm 0.00 in0.0 mm 0.00 in0.0 mm
06:30 PM 23.7°F-4.6°C 17.6°F-8.0°C 77% 8.0 mph SW12.9 kmh SW 13.0 mph20.9 kmh 29.99 in1015.6 mb 0.00 in0.0 mm 0.00 in0.0 mm 0.00 in0.0 mm
06:45 PM 24.1°F-4.4°C 18.3°F-7.6°C 78% 12.0 mph SW19.3 kmh SW 14.0 mph22.5 kmh 29.99 in1015.6 mb 0.00 in0.0 mm 0.00 in0.0 mm 0.00 in0.0 mm
07:00 PM 24.4°F-4.2°C 18.2°F-7.7°C 77% 13.0 mph SW20.9 kmh SW 16.0 mph25.7 kmh 29.99 in1015.6 mb 0.00 in0.0 mm 0.00 in0.0 mm 0.00 in0.0 mm
07:15 PM 24.5°F-4.2°C 18.3°F-7.6°C 77% 12.0 mph SW19.3 kmh SW 17.0 mph27.4 kmh 29.99 in1015.6 mb 0.00 in0.0 mm 0.00 in0.0 mm 0.00 in0.0 mm
07:30 PM 24.6°F-4.1°C 18.4°F-7.6°C 77% 13.0 mph SW20.9 kmh SW 16.0 mph25.7 kmh 29.99 in1015.6 mb 0.00 in0.0 mm 0.00 in0.0 mm 0.00 in0.0 mm
07:45 PM 24.8°F-4.0°C 18.9°F-7.3°C 78% 12.0 mph SW19.3 kmh SW 16.0 mph25.7 kmh 29.98 in1015.2 mb 0.00 in0.0 mm 0.00 in0.0 mm 0.00 in0.0 mm
08:00 PM 24.8°F-4.0°C 19.2°F-7.1°C 79% 13.0 mph SSW20.9 kmh SSW 13.0 mph20.9 kmh 29.98 in1015.2 mb 0.00 in0.0 mm 0.00 in0.0 mm 0.00 in0.0 mm
08:15 PM 25.2°F-3.8°C 19.6°F-6.9°C 79% 13.0 mph SW20.9 kmh SW 16.0 mph25.7 kmh 29.99 in1015.6 mb 0.00 in0.0 mm 0.00 in0.0 mm 0.00 in0.0 mm
08:30 PM 25.4°F-3.7°C 19.8°F-6.8°C 79% 11.0 mph SW17.7 kmh SW 14.0 mph22.5 kmh 29.99 in1015.6 mb 0.00 in0.0 mm 0.00 in0.0 mm 0.00 in0.0 mm
08:45 PM 25.5°F-3.6°C 20.5°F-6.4°C 81% 8.0 mph SSW12.9 kmh SSW 12.0 mph19.3 kmh 29.98 in1015.2 mb 0.00 in0.0 mm 0.00 in0.0 mm 0.00 in0.0 mm
09:01 PM 25.6°F-3.6°C 20.6°F-6.3°C 81% 10.0 mph SW16.1 kmh SW 16.0 mph25.7 kmh 29.98 in1015.2 mb 0.00 in0.0 mm 0.00 in0.0 mm 0.00 in0.0 mm
09:15 PM 25.7°F-3.5°C 20.4°F-6.4°C 80% 11.0 mph SW17.7 kmh SW 17.0 mph27.4 kmh 29.98 in1015.2 mb 0.00 in0.0 mm 0.00 in0.0 mm 0.00 in0.0 mm
09:30 PM 25.9°F-3.4°C 20.6°F-6.3°C 80% 13.0 mph SW20.9 kmh SW 17.0 mph27.4 kmh 29.98 in1015.2 mb 0.00 in0.0 mm 0.00 in0.0 mm 0.00 in0.0 mm
09:45 PM 26.0°F-3.3°C 20.4°F-6.4°C 79% 15.0 mph SW24.1 kmh SW 17.0 mph27.4 kmh 29.98 in1015.2 mb 0.00 in0.0 mm 0.00 in0.0 mm 0.00 in0.0 mm
10:00 PM 26.1°F-3.3°C 20.8°F-6.2°C 80% 14.0 mph SW22.5 kmh SW 17.0 mph27.4 kmh 29.98 in1015.2 mb 0.00 in0.0 mm 0.00 in0.0 mm 0.00 in0.0 mm
10:15 PM 26.1°F-3.3°C 21.4°F-5.9°C 82% 10.0 mph SW16.1 kmh SW 15.0 mph24.1 kmh 29.97 in1014.9 mb 0.00 in0.0 mm 0.00 in0.0 mm 0.00 in0.0 mm
10:30 PM 26.3°F-3.2°C 21.6°F-5.8°C 82% 10.0 mph SW16.1 kmh SW 15.0 mph24.1 kmh 29.97 in1014.9 mb 0.00 in0.0 mm 0.00 in0.0 mm 0.00 in0.0 mm
10:45 PM 26.5°F-3.1°C 21.8°F-5.7°C 82% 9.0 mph SSW14.5 kmh SSW 17.0 mph27.4 kmh 29.96 in1014.6 mb 0.00 in0.0 mm 0.00 in0.0 mm 0.00 in0.0 mm
11:00 PM 26.6°F-3.0°C 21.9°F-5.6°C 82% 12.0 mph SW19.3 kmh SW 14.0 mph22.5 kmh 29.96 in1014.6 mb 0.00 in0.0 mm 0.00 in0.0 mm 0.00 in0.0 mm
11:15 PM 26.9°F-2.8°C 22.4°F-5.3°C 83% 13.0 mph SW20.9 kmh SW 16.0 mph25.7 kmh 29.96 in1014.6 mb 0.00 in0.0 mm 0.00 in0.0 mm 0.00 in0.0 mm
11:30 PM 27.1°F-2.7°C 22.6°F-5.2°C 83% 11.0 mph SSW17.7 kmh SSW 14.0 mph22.5 kmh 29.95 in1014.2 mb 0.00 in0.0 mm 0.00 in0.0 mm 0.00 in0.0 mm
11:45 PM 27.2°F-2.7°C 23.0°F-5.0°C 84% 10.0 mph SSW16.1 kmh SSW 15.0 mph24.1 kmh 29.95 in1014.2 mb 0.00 in0.0 mm 0.00 in0.0 mm 0.00 in0.0 mm